sensor_id;sensor_type;location;lat;lon;timestamp;temperature;humidity
73568;SHT30;61847;54.994;73.310;2022-10-17T00:00:48;6.75;84.36
73568;SHT30;61847;54.994;73.310;2022-10-17T00:03:15;6.66;84.77
73568;SHT30;61847;54.994;73.310;2022-10-17T00:05:43;6.66;84.92
73568;SHT30;61847;54.994;73.310;2022-10-17T00:08:11;6.65;84.87
73568;SHT30;61847;54.994;73.310;2022-10-17T00:10:38;6.38;86.31
73568;SHT30;61847;54.994;73.310;2022-10-17T00:13:06;6.39;86.34
73568;SHT30;61847;54.994;73.310;2022-10-17T00:15:32;6.45;86.24
73568;SHT30;61847;54.994;73.310;2022-10-17T00:17:59;6.41;86.69
73568;SHT30;61847;54.994;73.310;2022-10-17T00:20:26;6.41;86.84
73568;SHT30;61847;54.994;73.310;2022-10-17T00:22:52;6.45;86.58
73568;SHT30;61847;54.994;73.310;2022-10-17T00:25:21;6.48;86.65
73568;SHT30;61847;54.994;73.310;2022-10-17T00:27:47;6.45;87.23
73568;SHT30;61847;54.994;73.310;2022-10-17T00:30:15;6.39;87.62
73568;SHT30;61847;54.994;73.310;2022-10-17T00:32:47;6.43;87.32
73568;SHT30;61847;54.994;73.310;2022-10-17T00:35:13;6.49;87.33
73568;SHT30;61847;54.994;73.310;2022-10-17T00:37:40;6.50;87.52
73568;SHT30;61847;54.994;73.310;2022-10-17T00:40:07;6.59;86.96
73568;SHT30;61847;54.994;73.310;2022-10-17T00:42:34;6.63;86.93
73568;SHT30;61847;54.994;73.310;2022-10-17T00:45:31;6.68;87.00
73568;SHT30;61847;54.994;73.310;2022-10-17T00:48:04;6.75;86.62
73568;SHT30;61847;54.994;73.310;2022-10-17T00:50:35;6.66;87.24
73568;SHT30;61847;54.994;73.310;2022-10-17T00:53:04;6.70;87.09
73568;SHT30;61847;54.994;73.310;2022-10-17T00:55:44;6.69;87.13
73568;SHT30;61847;54.994;73.310;2022-10-17T00:58:11;6.72;86.89
73568;SHT30;61847;54.994;73.310;2022-10-17T01:00:38;6.61;87.46
73568;SHT30;61847;54.994;73.310;2022-10-17T01:03:04;6.69;87.51
73568;SHT30;61847;54.994;73.310;2022-10-17T01:05:31;6.69;87.30
73568;SHT30;61847;54.994;73.310;2022-10-17T01:07:57;6.72;87.43
73568;SHT30;61847;54.994;73.310;2022-10-17T01:10:29;6.77;87.37
73568;SHT30;61847;54.994;73.310;2022-10-17T01:15:49;6.72;88.31
73568;SHT30;61847;54.994;73.310;2022-10-17T01:21:20;6.73;88.68
73568;SHT30;61847;54.994;73.310;2022-10-17T01:33:10;6.84;89.59
73568;SHT30;61847;54.994;73.310;2022-10-17T01:35:51;6.91;89.02
73568;SHT30;61847;54.994;73.310;2022-10-17T01:38:25;6.87;89.22
73568;SHT30;61847;54.994;73.310;2022-10-17T01:41:01;6.94;89.26
73568;SHT30;61847;54.994;73.310;2022-10-17T01:43:39;7.01;89.09
73568;SHT30;61847;54.994;73.310;2022-10-17T01:46:14;7.11;88.63
73568;SHT30;61847;54.994;73.310;2022-10-17T01:48:52;7.10;89.01
73568;SHT30;61847;54.994;73.310;2022-10-17T01:51:28;7.14;88.85
73568;SHT30;61847;54.994;73.310;2022-10-17T01:54:09;7.18;88.54
73568;SHT30;61847;54.994;73.310;2022-10-17T01:56:38;7.21;88.58
73568;SHT30;61847;54.994;73.310;2022-10-17T01:59:15;7.20;88.49
73568;SHT30;61847;54.994;73.310;2022-10-17T02:01:44;7.25;88.11
73568;SHT30;61847;54.994;73.310;2022-10-17T02:04:11;7.29;87.90
73568;SHT30;61847;54.994;73.310;2022-10-17T02:06:37;7.35;87.80
73568;SHT30;61847;54.994;73.310;2022-10-17T02:09:22;7.36;87.93
73568;SHT30;61847;54.994;73.310;2022-10-17T02:15:25;7.38;87.84
73568;SHT30;61847;54.994;73.310;2022-10-17T02:17:59;7.47;87.43
73568;SHT30;61847;54.994;73.310;2022-10-17T02:20:56;7.41;87.39
73568;SHT30;61847;54.994;73.310;2022-10-17T02:23:26;7.45;87.37
73568;SHT30;61847;54.994;73.310;2022-10-17T02:26:20;7.44;87.33
73568;SHT30;61847;54.994;73.310;2022-10-17T02:29:17;7.48;87.19
73568;SHT30;61847;54.994;73.310;2022-10-17T02:31:49;7.52;87.07
73568;SHT30;61847;54.994;73.310;2022-10-17T02:34:41;7.42;87.31
73568;SHT30;61847;54.994;73.310;2022-10-17T02:37:09;7.47;87.19
73568;SHT30;61847;54.994;73.310;2022-10-17T02:39:37;7.49;87.12
73568;SHT30;61847;54.994;73.310;2022-10-17T02:42:06;7.51;87.01
73568;SHT30;61847;54.994;73.310;2022-10-17T02:44:37;7.52;86.89
73568;SHT30;61847;54.994;73.310;2022-10-17T02:47:12;7.58;86.75
73568;SHT30;61847;54.994;73.310;2022-10-17T02:49:46;7.51;86.86
73568;SHT30;61847;54.994;73.310;2022-10-17T02:52:36;7.54;86.85
73568;SHT30;61847;54.994;73.310;2022-10-17T02:55:22;7.47;86.94
73568;SHT30;61847;54.994;73.310;2022-10-17T02:57:52;7.54;86.82
73568;SHT30;61847;54.994;73.310;2022-10-17T03:00:21;7.54;86.72
73568;SHT30;61847;54.994;73.310;2022-10-17T03:02:50;7.56;86.69
73568;SHT30;61847;54.994;73.310;2022-10-17T03:05:20;7.62;86.60
73568;SHT30;61847;54.994;73.310;2022-10-17T03:07:46;7.62;86.62
73568;SHT30;61847;54.994;73.310;2022-10-17T03:10:13;7.62;86.63
73568;SHT30;61847;54.994;73.310;2022-10-17T03:12:39;7.70;86.29
73568;SHT30;61847;54.994;73.310;2022-10-17T03:15:12;7.68;86.35
73568;SHT30;61847;54.994;73.310;2022-10-17T03:17:39;7.68;86.19
73568;SHT30;61847;54.994;73.310;2022-10-17T03:20:07;7.58;86.68
73568;SHT30;61847;54.994;73.310;2022-10-17T03:22:34;7.56;86.77
73568;SHT30;61847;54.994;73.310;2022-10-17T03:25:02;7.55;86.49
73568;SHT30;61847;54.994;73.310;2022-10-17T03:27:28;7.62;86.42
73568;SHT30;61847;54.994;73.310;2022-10-17T03:29:55;7.62;86.46
73568;SHT30;61847;54.994;73.310;2022-10-17T03:32:21;7.68;86.28
73568;SHT30;61847;54.994;73.310;2022-10-17T03:34:47;7.66;86.53
73568;SHT30;61847;54.994;73.310;2022-10-17T03:37:14;7.68;86.46
73568;SHT30;61847;54.994;73.310;2022-10-17T03:39:41;7.70;86.51
73568;SHT30;61847;54.994;73.310;2022-10-17T03:42:07;7.76;86.28
73568;SHT30;61847;54.994;73.310;2022-10-17T03:44:33;7.73;86.43
73568;SHT30;61847;54.994;73.310;2022-10-17T03:47:00;7.70;86.56
73568;SHT30;61847;54.994;73.310;2022-10-17T03:49:26;7.73;86.65
73568;SHT30;61847;54.994;73.310;2022-10-17T03:51:53;7.75;86.81
73568;SHT30;61847;54.994;73.310;2022-10-17T03:54:19;7.80;86.75
73568;SHT30;61847;54.994;73.310;2022-10-17T03:56:56;7.82;86.40
73568;SHT30;61847;54.994;73.310;2022-10-17T03:59:22;7.80;86.76
73568;SHT30;61847;54.994;73.310;2022-10-17T04:01:58;7.79;86.59
73568;SHT30;61847;54.994;73.310;2022-10-17T04:04:24;7.85;86.46
73568;SHT30;61847;54.994;73.310;2022-10-17T04:06:51;7.89;85.94
73568;SHT30;61847;54.994;73.310;2022-10-17T04:09:17;7.87;85.89
73568;SHT30;61847;54.994;73.310;2022-10-17T04:11:58;7.91;85.66
73568;SHT30;61847;54.994;73.310;2022-10-17T04:14:24;7.94;85.41
73568;SHT30;61847;54.994;73.310;2022-10-17T04:16:50;7.91;85.16
73568;SHT30;61847;54.994;73.310;2022-10-17T04:19:20;7.97;84.73
73568;SHT30;61847;54.994;73.310;2022-10-17T04:21:50;7.89;84.72
73568;SHT30;61847;54.994;73.310;2022-10-17T04:24:29;7.91;84.57
73568;SHT30;61847;54.994;73.310;2022-10-17T04:27:07;7.91;84.06
73568;SHT30;61847;54.994;73.310;2022-10-17T04:29:37;7.93;83.58
73568;SHT30;61847;54.994;73.310;2022-10-17T04:32:15;7.87;83.16
73568;SHT30;61847;54.994;73.310;2022-10-17T04:34:49;7.89;83.12
73568;SHT30;61847;54.994;73.310;2022-10-17T04:37:17;7.93;83.05
73568;SHT30;61847;54.994;73.310;2022-10-17T04:39:45;7.91;83.18
73568;SHT30;61847;54.994;73.310;2022-10-17T04:42:11;7.93;83.01
73568;SHT30;61847;54.994;73.310;2022-10-17T04:44:39;7.97;82.52
73568;SHT30;61847;54.994;73.310;2022-10-17T04:47:07;7.94;82.54
73568;SHT30;61847;54.994;73.310;2022-10-17T04:49:33;7.91;82.20
73568;SHT30;61847;54.994;73.310;2022-10-17T04:52:07;7.96;81.96
73568;SHT30;61847;54.994;73.310;2022-10-17T04:54:42;7.93;82.17
73568;SHT30;61847;54.994;73.310;2022-10-17T04:57:10;7.89;82.37
73568;SHT30;61847;54.994;73.310;2022-10-17T04:59:37;7.86;82.84
73568;SHT30;61847;54.994;73.310;2022-10-17T05:02:15;7.90;82.84
73568;SHT30;61847;54.994;73.310;2022-10-17T05:04:41;7.98;82.63
73568;SHT30;61847;54.994;73.310;2022-10-17T05:07:09;8.11;82.32
73568;SHT30;61847;54.994;73.310;2022-10-17T05:09:46;8.25;81.70
73568;SHT30;61847;54.994;73.310;2022-10-17T05:12:14;8.34;81.50
73568;SHT30;61847;54.994;73.310;2022-10-17T05:14:43;8.46;81.23
73568;SHT30;61847;54.994;73.310;2022-10-17T05:17:09;8.51;80.88
73568;SHT30;61847;54.994;73.310;2022-10-17T05:19:37;8.54;80.87
73568;SHT30;61847;54.994;73.310;2022-10-17T05:22:04;8.62;80.57
73568;SHT30;61847;54.994;73.310;2022-10-17T05:24:30;8.66;79.96
73568;SHT30;61847;54.994;73.310;2022-10-17T05:26:58;8.69;79.59
73568;SHT30;61847;54.994;73.310;2022-10-17T05:29:25;8.80;79.39
73568;SHT30;61847;54.994;73.310;2022-10-17T05:31:59;8.77;79.34
73568;SHT30;61847;54.994;73.310;2022-10-17T05:34:26;8.79;79.42
73568;SHT30;61847;54.994;73.310;2022-10-17T05:36:52;8.76;79.30
73568;SHT30;61847;54.994;73.310;2022-10-17T05:39:21;8.72;79.15
73568;SHT30;61847;54.994;73.310;2022-10-17T05:41:49;8.79;79.38
73568;SHT30;61847;54.994;73.310;2022-10-17T05:44:17;8.73;79.06
73568;SHT30;61847;54.994;73.310;2022-10-17T05:46:48;8.62;79.48
73568;SHT30;61847;54.994;73.310;2022-10-17T05:49:15;8.55;79.57
73568;SHT30;61847;54.994;73.310;2022-10-17T05:51:42;8.59;79.76
73568;SHT30;61847;54.994;73.310;2022-10-17T05:54:08;8.65;79.55
73568;SHT30;61847;54.994;73.310;2022-10-17T05:56:44;8.66;79.62
73568;SHT30;61847;54.994;73.310;2022-10-17T05:59:11;8.64;79.97
73568;SHT30;61847;54.994;73.310;2022-10-17T06:01:53;8.73;80.34
73568;SHT30;61847;54.994;73.310;2022-10-17T06:04:19;8.82;79.39
73568;SHT30;61847;54.994;73.310;2022-10-17T06:06:46;8.83;78.75
73568;SHT30;61847;54.994;73.310;2022-10-17T06:09:12;8.93;78.37
73568;SHT30;61847;54.994;73.310;2022-10-17T06:11:42;9.04;77.82
73568;SHT30;61847;54.994;73.310;2022-10-17T06:14:10;9.11;77.26
73568;SHT30;61847;54.994;73.310;2022-10-17T06:16:38;9.16;77.14
73568;SHT30;61847;54.994;73.310;2022-10-17T06:19:05;9.20;76.92
73568;SHT30;61847;54.994;73.310;2022-10-17T06:21:31;9.20;76.94
73568;SHT30;61847;54.994;73.310;2022-10-17T06:24:19;9.21;76.49
73568;SHT30;61847;54.994;73.310;2022-10-17T06:26:45;9.13;76.28
73568;SHT30;61847;54.994;73.310;2022-10-17T06:29:15;9.20;76.56
73568;SHT30;61847;54.994;73.310;2022-10-17T06:31:57;9.26;75.68
73568;SHT30;61847;54.994;73.310;2022-10-17T06:34:24;9.16;75.21
73568;SHT30;61847;54.994;73.310;2022-10-17T06:36:51;9.26;75.76
73568;SHT30;61847;54.994;73.310;2022-10-17T06:39:18;9.37;75.19
73568;SHT30;61847;54.994;73.310;2022-10-17T06:41:59;9.27;74.50
73568;SHT30;61847;54.994;73.310;2022-10-17T06:44:43;9.30;74.72
73568;SHT30;61847;54.994;73.310;2022-10-17T06:47:28;9.35;74.44
73568;SHT30;61847;54.994;73.310;2022-10-17T06:50:09;9.30;74.90
73568;SHT30;61847;54.994;73.310;2022-10-17T06:52:42;9.38;74.98
73568;SHT30;61847;54.994;73.310;2022-10-17T06:55:30;9.50;74.59
73568;SHT30;61847;54.994;73.310;2022-10-17T06:58:14;9.63;74.05
73568;SHT30;61847;54.994;73.310;2022-10-17T07:01:02;9.74;73.28
73568;SHT30;61847;54.994;73.310;2022-10-17T07:03:30;9.75;72.65
73568;SHT30;61847;54.994;73.310;2022-10-17T07:05:57;9.74;72.30
73568;SHT30;61847;54.994;73.310;2022-10-17T07:08:23;9.74;72.16
73568;SHT30;61847;54.994;73.310;2022-10-17T07:10:50;9.62;72.10
73568;SHT30;61847;54.994;73.310;2022-10-17T07:13:17;9.63;72.23
73568;SHT30;61847;54.994;73.310;2022-10-17T07:15:44;9.58;72.79
73568;SHT30;61847;54.994;73.310;2022-10-17T07:18:11;9.57;73.35
73568;SHT30;61847;54.994;73.310;2022-10-17T07:20:38;9.57;73.56
73568;SHT30;61847;54.994;73.310;2022-10-17T07:23:05;9.51;73.76
73568;SHT30;61847;54.994;73.310;2022-10-17T07:25:33;9.52;73.64
73568;SHT30;61847;54.994;73.310;2022-10-17T07:28:05;9.44;73.78
73568;SHT30;61847;54.994;73.310;2022-10-17T07:30:32;9.50;73.62
73568;SHT30;61847;54.994;73.310;2022-10-17T07:33:06;9.57;72.77
73568;SHT30;61847;54.994;73.310;2022-10-17T07:35:38;9.62;72.33
73568;SHT30;61847;54.994;73.310;2022-10-17T07:38:06;9.63;71.46
73568;SHT30;61847;54.994;73.310;2022-10-17T07:40:33;9.65;69.95
73568;SHT30;61847;54.994;73.310;2022-10-17T07:43:01;9.68;69.64
73568;SHT30;61847;54.994;73.310;2022-10-17T07:45:27;9.69;69.37
73568;SHT30;61847;54.994;73.310;2022-10-17T07:47:55;9.69;69.43
73568;SHT30;61847;54.994;73.310;2022-10-17T07:50:22;9.65;69.43
73568;SHT30;61847;54.994;73.310;2022-10-17T07:52:49;9.65;70.03
73568;SHT30;61847;54.994;73.310;2022-10-17T07:55:15;9.77;70.24
73568;SHT30;61847;54.994;73.310;2022-10-17T07:57:42;9.74;70.86
73568;SHT30;61847;54.994;73.310;2022-10-17T08:00:13;9.67;71.19
73568;SHT30;61847;54.994;73.310;2022-10-17T08:02:41;9.59;71.38
73568;SHT30;61847;54.994;73.310;2022-10-17T08:05:10;9.79;71.43
73568;SHT30;61847;54.994;73.310;2022-10-17T08:07:36;9.89;70.84
73568;SHT30;61847;54.994;73.310;2022-10-17T08:10:04;9.93;70.58
73568;SHT30;61847;54.994;73.310;2022-10-17T08:12:30;9.99;70.18
73568;SHT30;61847;54.994;73.310;2022-10-17T08:15:00;9.95;69.44
73568;SHT30;61847;54.994;73.310;2022-10-17T08:17:26;9.83;69.63
73568;SHT30;61847;54.994;73.310;2022-10-17T08:19:52;9.83;69.67
73568;SHT30;61847;54.994;73.310;2022-10-17T08:22:19;9.77;69.25
73568;SHT30;61847;54.994;73.310;2022-10-17T08:24:45;9.58;69.68
73568;SHT30;61847;54.994;73.310;2022-10-17T08:27:11;9.55;70.87
73568;SHT30;61847;54.994;73.310;2022-10-17T08:29:39;9.37;74.46
73568;SHT30;61847;54.994;73.310;2022-10-17T08:32:10;9.00;74.63
73568;SHT30;61847;54.994;73.310;2022-10-17T08:34:36;8.71;77.21
73568;SHT30;61847;54.994;73.310;2022-10-17T08:37:13;8.56;77.52
73568;SHT30;61847;54.994;73.310;2022-10-17T08:39:40;8.27;79.58
73568;SHT30;61847;54.994;73.310;2022-10-17T08:48:00;8.08;81.90
73568;SHT30;61847;54.994;73.310;2022-10-17T08:55:49;8.08;82.02
73568;SHT30;61847;54.994;73.310;2022-10-17T09:06:11;7.90;83.73
73568;SHT30;61847;54.994;73.310;2022-10-17T09:08:55;7.94;83.22
73568;SHT30;61847;54.994;73.310;2022-10-17T09:20:09;7.76;83.37
73568;SHT30;61847;54.994;73.310;2022-10-17T09:23:00;7.85;84.52
73568;SHT30;61847;54.994;73.310;2022-10-17T09:25:39;7.93;83.85
73568;SHT30;61847;54.994;73.310;2022-10-17T09:31:08;8.06;84.00
73568;SHT30;61847;54.994;73.310;2022-10-17T09:33:43;8.14;81.07
73568;SHT30;61847;54.994;73.310;2022-10-17T09:36:18;8.18;81.59
73568;SHT30;61847;54.994;73.310;2022-10-17T09:38:52;8.25;81.74
73568;SHT30;61847;54.994;73.310;2022-10-17T09:41:22;8.28;81.47
73568;SHT30;61847;54.994;73.310;2022-10-17T09:43:52;8.28;81.69
73568;SHT30;61847;54.994;73.310;2022-10-17T09:46:36;8.31;81.72
73568;SHT30;61847;54.994;73.310;2022-10-17T09:49:19;8.35;81.71
73568;SHT30;61847;54.994;73.310;2022-10-17T09:51:50;8.41;81.57
73568;SHT30;61847;54.994;73.310;2022-10-17T09:54:22;8.41;81.91
73568;SHT30;61847;54.994;73.310;2022-10-17T09:56:59;8.48;82.05
73568;SHT30;61847;54.994;73.310;2022-10-17T09:59:37;8.44;82.55
73568;SHT30;61847;54.994;73.310;2022-10-17T10:02:19;8.42;81.78
73568;SHT30;61847;54.994;73.310;2022-10-17T10:05:05;8.40;82.04
73568;SHT30;61847;54.994;73.310;2022-10-17T10:08:04;8.06;80.84
73568;SHT30;61847;54.994;73.310;2022-10-17T10:10:32;7.89;81.03
73568;SHT30;61847;54.994;73.310;2022-10-17T10:15:40;7.61;81.53
73568;SHT30;61847;54.994;73.310;2022-10-17T10:18:50;7.54;81.21
73568;SHT30;61847;54.994;73.310;2022-10-17T10:21:24;7.54;81.85
73568;SHT30;61847;54.994;73.310;2022-10-17T10:26:45;7.48;82.59
73568;SHT30;61847;54.994;73.310;2022-10-17T10:29:38;7.55;83.56
73568;SHT30;61847;54.994;73.310;2022-10-17T10:34:55;7.62;82.41
73568;SHT30;61847;54.994;73.310;2022-10-17T10:37:25;7.62;82.22
73568;SHT30;61847;54.994;73.310;2022-10-17T10:39:57;7.56;81.56
73568;SHT30;61847;54.994;73.310;2022-10-17T10:42:30;7.56;81.75
73568;SHT30;61847;54.994;73.310;2022-10-17T10:45:12;7.55;82.08
73568;SHT30;61847;54.994;73.310;2022-10-17T10:48:02;7.49;80.30
73568;SHT30;61847;54.994;73.310;2022-10-17T10:56:05;7.70;80.72
73568;SHT30;61847;54.994;73.310;2022-10-17T10:58:41;7.77;80.76
73568;SHT30;61847;54.994;73.310;2022-10-17T11:01:27;7.80;81.20
73568;SHT30;61847;54.994;73.310;2022-10-17T11:06:45;7.85;81.62
73568;SHT30;61847;54.994;73.310;2022-10-17T11:12:16;7.86;82.87
73568;SHT30;61847;54.994;73.310;2022-10-17T11:15:02;7.75;82.34
73568;SHT30;61847;54.994;73.310;2022-10-17T11:17:37;7.62;82.57
73568;SHT30;61847;54.994;73.310;2022-10-17T11:22:42;7.51;83.26
73568;SHT30;61847;54.994;73.310;2022-10-17T11:25:32;7.45;81.87
73568;SHT30;61847;54.994;73.310;2022-10-17T11:28:14;7.44;82.38
73568;SHT30;61847;54.994;73.310;2022-10-17T11:30:58;7.41;83.14
73568;SHT30;61847;54.994;73.310;2022-10-17T11:33:30;7.35;83.52
73568;SHT30;61847;54.994;73.310;2022-10-17T11:36:03;7.31;82.89
73568;SHT30;61847;54.994;73.310;2022-10-17T11:39:10;7.32;83.03
73568;SHT30;61847;54.994;73.310;2022-10-17T11:41:47;7.34;83.77
73568;SHT30;61847;54.994;73.310;2022-10-17T11:46:42;7.29;83.34
73568;SHT30;61847;54.994;73.310;2022-10-17T11:49:22;7.32;82.99
73568;SHT30;61847;54.994;73.310;2022-10-17T11:52:13;7.31;82.36
73568;SHT30;61847;54.994;73.310;2022-10-17T11:54:53;7.25;82.89
73568;SHT30;61847;54.994;73.310;2022-10-17T11:57:46;7.18;83.11
73568;SHT30;61847;54.994;73.310;2022-10-17T12:08:58;7.20;83.58
73568;SHT30;61847;54.994;73.310;2022-10-17T12:14:00;7.11;83.64
73568;SHT30;61847;54.994;73.310;2022-10-17T12:21:28;7.12;83.52
73568;SHT30;61847;54.994;73.310;2022-10-17T12:24:34;7.12;84.37
73568;SHT30;61847;54.994;73.310;2022-10-17T12:27:37;7.11;83.66
73568;SHT30;61847;54.994;73.310;2022-10-17T12:30:18;7.08;83.73
73568;SHT30;61847;54.994;73.310;2022-10-17T12:35:39;6.93;83.57
73568;SHT30;61847;54.994;73.310;2022-10-17T12:45:50;6.97;83.45
73568;SHT30;61847;54.994;73.310;2022-10-17T12:51:12;6.96;83.93
73568;SHT30;61847;54.994;73.310;2022-10-17T12:56:20;6.94;83.38
73568;SHT30;61847;54.994;73.310;2022-10-17T12:58:49;6.96;83.47
73568;SHT30;61847;54.994;73.310;2022-10-17T13:01:28;6.93;83.46
73568;SHT30;61847;54.994;73.310;2022-10-17T13:03:57;6.97;83.80
73568;SHT30;61847;54.994;73.310;2022-10-17T13:06:29;6.94;83.46
73568;SHT30;61847;54.994;73.310;2022-10-17T13:09:07;6.96;83.59
73568;SHT30;61847;54.994;73.310;2022-10-17T13:11:36;6.97;83.18
73568;SHT30;61847;54.994;73.310;2022-10-17T13:14:10;6.96;83.40
73568;SHT30;61847;54.994;73.310;2022-10-17T13:16:40;6.89;83.71
73568;SHT30;61847;54.994;73.310;2022-10-17T13:19:16;6.90;83.41
73568;SHT30;61847;54.994;73.310;2022-10-17T13:21:56;6.91;83.55
73568;SHT30;61847;54.994;73.310;2022-10-17T13:24:37;6.90;83.56
73568;SHT30;61847;54.994;73.310;2022-10-17T13:27:05;6.89;83.35
73568;SHT30;61847;54.994;73.310;2022-10-17T13:29:43;6.90;83.43
73568;SHT30;61847;54.994;73.310;2022-10-17T13:32:10;6.94;83.06
73568;SHT30;61847;54.994;73.310;2022-10-17T13:34:37;6.94;83.10
73568;SHT30;61847;54.994;73.310;2022-10-17T13:37:05;6.94;82.95
73568;SHT30;61847;54.994;73.310;2022-10-17T13:39:43;6.89;83.26
73568;SHT30;61847;54.994;73.310;2022-10-17T13:42:29;6.89;83.03
73568;SHT30;61847;54.994;73.310;2022-10-17T13:45:30;6.90;83.14
73568;SHT30;61847;54.994;73.310;2022-10-17T13:48:00;6.89;83.12
73568;SHT30;61847;54.994;73.310;2022-10-17T13:50:34;6.91;83.04
73568;SHT30;61847;54.994;73.310;2022-10-17T13:53:24;6.93;83.18
73568;SHT30;61847;54.994;73.310;2022-10-17T13:56:01;6.93;83.16
73568;SHT30;61847;54.994;73.310;2022-10-17T13:58:48;6.90;83.01
73568;SHT30;61847;54.994;73.310;2022-10-17T14:01:15;6.91;83.17
73568;SHT30;61847;54.994;73.310;2022-10-17T14:03:46;6.90;82.98
73568;SHT30;61847;54.994;73.310;2022-10-17T14:06:23;6.90;83.07
73568;SHT30;61847;54.994;73.310;2022-10-17T14:09:03;6.87;83.27
73568;SHT30;61847;54.994;73.310;2022-10-17T14:11:42;6.96;83.36
73568;SHT30;61847;54.994;73.310;2022-10-17T14:14:22;6.99;82.84
73568;SHT30;61847;54.994;73.310;2022-10-17T14:16:51;6.94;82.62
73568;SHT30;61847;54.994;73.310;2022-10-17T14:19:27;6.94;82.84
73568;SHT30;61847;54.994;73.310;2022-10-17T14:22:22;6.99;82.71
73568;SHT30;61847;54.994;73.310;2022-10-17T14:24:48;6.89;82.47
73568;SHT30;61847;54.994;73.310;2022-10-17T14:27:31;6.79;82.49
73568;SHT30;61847;54.994;73.310;2022-10-17T14:30:04;6.79;82.71
73568;SHT30;61847;54.994;73.310;2022-10-17T14:32:35;6.73;82.81
73568;SHT30;61847;54.994;73.310;2022-10-17T14:35:03;6.73;82.87
73568;SHT30;61847;54.994;73.310;2022-10-17T14:37:43;6.62;83.21
73568;SHT30;61847;54.994;73.310;2022-10-17T14:40:18;6.59;83.30
73568;SHT30;61847;54.994;73.310;2022-10-17T14:42:56;6.61;83.12
73568;SHT30;61847;54.994;73.310;2022-10-17T14:50:34;6.61;83.23
73568;SHT30;61847;54.994;73.310;2022-10-17T14:53:17;6.63;83.21
73568;SHT30;61847;54.994;73.310;2022-10-17T14:56:01;6.61;83.21
73568;SHT30;61847;54.994;73.310;2022-10-17T14:58:31;6.56;83.40
73568;SHT30;61847;54.994;73.310;2022-10-17T15:01:03;6.62;83.46
73568;SHT30;61847;54.994;73.310;2022-10-17T15:03:40;6.68;83.39
73568;SHT30;61847;54.994;73.310;2022-10-17T15:06:23;6.65;83.97
73568;SHT30;61847;54.994;73.310;2022-10-17T15:08:51;6.65;83.48
73568;SHT30;61847;54.994;73.310;2022-10-17T15:11:17;6.57;83.50
73568;SHT30;61847;54.994;73.310;2022-10-17T15:13:44;6.55;83.96
73568;SHT30;61847;54.994;73.310;2022-10-17T15:18:45;6.57;83.41
73568;SHT30;61847;54.994;73.310;2022-10-17T15:21:13;6.56;83.65
73568;SHT30;61847;54.994;73.310;2022-10-17T15:23:41;6.50;83.87
73568;SHT30;61847;54.994;73.310;2022-10-17T15:26:29;6.48;84.20
73568;SHT30;61847;54.994;73.310;2022-10-17T15:28:56;6.49;84.12
73568;SHT30;61847;54.994;73.310;2022-10-17T15:31:25;6.41;84.29
73568;SHT30;61847;54.994;73.310;2022-10-17T15:33:52;6.43;84.20
73568;SHT30;61847;54.994;73.310;2022-10-17T15:38:54;6.45;84.13
73568;SHT30;61847;54.994;73.310;2022-10-17T15:41:22;6.56;84.20
73568;SHT30;61847;54.994;73.310;2022-10-17T15:43:59;6.61;83.83
73568;SHT30;61847;54.994;73.310;2022-10-17T15:46:31;6.61;83.69
73568;SHT30;61847;54.994;73.310;2022-10-17T15:49:19;6.59;83.92
73568;SHT30;61847;54.994;73.310;2022-10-17T15:51:49;6.63;83.53
73568;SHT30;61847;54.994;73.310;2022-10-17T15:54:15;6.57;83.59
73568;SHT30;61847;54.994;73.310;2022-10-17T15:56:42;6.63;83.49
73568;SHT30;61847;54.994;73.310;2022-10-17T15:59:18;6.57;83.54
73568;SHT30;61847;54.994;73.310;2022-10-17T16:01:45;6.63;83.68
73568;SHT30;61847;54.994;73.310;2022-10-17T16:04:13;6.59;83.25
73568;SHT30;61847;54.994;73.310;2022-10-17T16:06:41;6.61;83.40
73568;SHT30;61847;54.994;73.310;2022-10-17T16:09:08;6.52;83.63
73568;SHT30;61847;54.994;73.310;2022-10-17T16:11:42;6.55;83.43
73568;SHT30;61847;54.994;73.310;2022-10-17T16:14:15;6.50;83.47
73568;SHT30;61847;54.994;73.310;2022-10-17T16:16:43;6.50;83.66
73568;SHT30;61847;54.994;73.310;2022-10-17T16:19:10;6.55;83.57
73568;SHT30;61847;54.994;73.310;2022-10-17T16:21:39;6.53;83.50
73568;SHT30;61847;54.994;73.310;2022-10-17T16:24:10;6.49;83.26
73568;SHT30;61847;54.994;73.310;2022-10-17T16:26:43;6.45;83.65
73568;SHT30;61847;54.994;73.310;2022-10-17T16:29:09;6.42;83.64
73568;SHT30;61847;54.994;73.310;2022-10-17T16:31:39;6.38;83.73
73568;SHT30;61847;54.994;73.310;2022-10-17T16:34:06;6.38;83.82
73568;SHT30;61847;54.994;73.310;2022-10-17T16:36:34;6.43;83.60
73568;SHT30;61847;54.994;73.310;2022-10-17T16:39:00;6.42;83.79
73568;SHT30;61847;54.994;73.310;2022-10-17T16:41:29;6.45;83.62
73568;SHT30;61847;54.994;73.310;2022-10-17T16:43:57;6.39;83.70
73568;SHT30;61847;54.994;73.310;2022-10-17T16:46:25;6.35;83.84
73568;SHT30;61847;54.994;73.310;2022-10-17T16:48:51;6.32;83.97
73568;SHT30;61847;54.994;73.310;2022-10-17T16:51:18;6.34;83.88
73568;SHT30;61847;54.994;73.310;2022-10-17T16:53:46;6.28;83.91
73568;SHT30;61847;54.994;73.310;2022-10-17T16:56:26;6.21;84.15
73568;SHT30;61847;54.994;73.310;2022-10-17T16:59:09;6.31;83.97
73568;SHT30;61847;54.994;73.310;2022-10-17T17:01:35;6.35;83.64
73568;SHT30;61847;54.994;73.310;2022-10-17T17:04:04;6.32;83.92
73568;SHT30;61847;54.994;73.310;2022-10-17T17:06:30;6.32;83.88
73568;SHT30;61847;54.994;73.310;2022-10-17T17:08:59;6.28;84.07
73568;SHT30;61847;54.994;73.310;2022-10-17T17:11:26;6.28;84.14
73568;SHT30;61847;54.994;73.310;2022-10-17T17:13:58;6.22;84.34
73568;SHT30;61847;54.994;73.310;2022-10-17T17:16:36;6.21;84.40
73568;SHT30;61847;54.994;73.310;2022-10-17T17:19:06;6.18;84.57
73568;SHT30;61847;54.994;73.310;2022-10-17T17:21:33;6.15;84.59
73568;SHT30;61847;54.994;73.310;2022-10-17T17:24:05;6.13;84.77
73568;SHT30;61847;54.994;73.310;2022-10-17T17:26:33;6.11;84.75
73568;SHT30;61847;54.994;73.310;2022-10-17T17:29:04;6.10;85.04
73568;SHT30;61847;54.994;73.310;2022-10-17T17:31:32;6.08;84.98
73568;SHT30;61847;54.994;73.310;2022-10-17T17:34:00;6.11;84.76
73568;SHT30;61847;54.994;73.310;2022-10-17T17:36:29;6.14;84.46
73568;SHT30;61847;54.994;73.310;2022-10-17T17:39:00;6.13;84.70
73568;SHT30;61847;54.994;73.310;2022-10-17T17:41:33;6.15;84.44
73568;SHT30;61847;54.994;73.310;2022-10-17T17:44:00;6.17;84.31
73568;SHT30;61847;54.994;73.310;2022-10-17T17:46:27;6.20;84.33
73568;SHT30;61847;54.994;73.310;2022-10-17T17:48:54;6.17;84.22
73568;SHT30;61847;54.994;73.310;2022-10-17T17:51:22;6.13;84.30
73568;SHT30;61847;54.994;73.310;2022-10-17T17:53:49;6.04;84.68
73568;SHT30;61847;54.994;73.310;2022-10-17T17:56:20;5.93;84.97
73568;SHT30;61847;54.994;73.310;2022-10-17T17:58:51;5.94;84.90